Terminal Aerodrome Forecast
Issued by NWS Corpus Christi, TX

Home | Current Version | Previous Version | Text Only | Print | Product List | Glossary On
Versions: 1 2 3 4 5 6 7 8 9 10 11 12 13 14
610
FTUS44 KCRP 121422 AAA
TAFVCT
TAF AMD
KVCT 121422Z 1214/1312 16004KT 1/4SM FG OVC002
     FM121530 21008KT P6SM SCT035
     FM122200 15004KT P6SM SCT015
     FM130600 VRB03KT 5SM BR FEW020
      TEMPO 1308/1312 1SM BR BKN010=

USA.gov is the U.S. government's official web portal to all federal, state and local government web resources and services.